BBC397 VGHS-VIDP
Flight info
| Callsign | BBC397 |
|---|---|
| Flight time | N/A |
| Altitude | 36000 |
| Route | IDLOX1D IDLOX DCT RAJ A201 LKN M890 JAL JAL7E |
| Aircraft | B77W/H-SDE1E2E3FGHIJ2J3J4J5M1RWXY/LB1D1 |
Departure
| Time | 2026-05-04 14:34 |
|---|---|
| Airport | Hazrat Shahjalal International Airport (VGHS) |
Arrival
| Time | N/A |
|---|---|
| Airport | Indira Gandhi International Airport (VIDP) |
| Time | Latitude | Longitude | Altitude | Speed | Heading |
|---|---|---|---|---|---|
| 2026-05-04 13:59 | 23.84677 | 90.40466 | 41 ft | 0 kts | 53° |
| 2026-05-04 14:20 | 23.84666 | 90.40450 | 15 ft | 4 kts | 52° |
| 2026-05-04 14:20 | 23.84650 | 90.40428 | 18 ft | 4 kts | 48° |
| 2026-05-04 14:21 | 23.84625 | 90.40408 | 38 ft | 2 kts | 350° |
| 2026-05-04 14:21 | 23.84614 | 90.40412 | 38 ft | 2 kts | 328° |
| 2026-05-04 14:21 | 23.84605 | 90.40419 | 38 ft | 2 kts | 323° |
| 2026-05-04 14:21 | 23.84602 | 90.40422 | 39 ft | 0 kts | 323° |
| 2026-05-04 14:26 | 23.84603 | 90.40421 | 41 ft | 0 kts | 323° |
| 2026-05-04 14:27 | 23.84605 | 90.40419 | 41 ft | 0 kts | 323° |
| 2026-05-04 14:27 | 23.84616 | 90.40411 | 41 ft | 4 kts | 323° |
| 2026-05-04 14:27 | 23.84653 | 90.40381 | 41 ft | 9 kts | 324° |
| 2026-05-04 14:27 | 23.84687 | 90.40324 | 41 ft | 11 kts | 266° |
| 2026-05-04 14:28 | 23.84651 | 90.40252 | 41 ft | 9 kts | 241° |
| 2026-05-04 14:28 | 23.84663 | 90.40187 | 41 ft | 10 kts | 315° |
| 2026-05-04 14:28 | 23.84720 | 90.40142 | 41 ft | 10 kts | 324° |
| 2026-05-04 14:28 | 23.84780 | 90.40094 | 41 ft | 11 kts | 324° |
| 2026-05-04 14:29 | 23.84910 | 90.39990 | 41 ft | 12 kts | 324° |
| 2026-05-04 14:29 | 23.85052 | 90.39877 | 41 ft | 13 kts | 324° |
| 2026-05-04 14:30 | 23.85127 | 90.39817 | 41 ft | 14 kts | 324° |
| 2026-05-04 14:30 | 23.85205 | 90.39754 | 41 ft | 14 kts | 324° |
| 2026-05-04 14:30 | 23.85369 | 90.39623 | 41 ft | 15 kts | 324° |
| 2026-05-04 14:31 | 23.85455 | 90.39557 | 41 ft | 15 kts | 325° |
| 2026-05-04 14:31 | 23.85626 | 90.39421 | 40 ft | 15 kts | 321° |
| 2026-05-04 14:32 | 23.85752 | 90.39292 | 41 ft | 10 kts | 279° |
| 2026-05-04 14:32 | 23.85732 | 90.39220 | 41 ft | 10 kts | 237° |
| 2026-05-04 14:32 | 23.85691 | 90.39154 | 41 ft | 10 kts | 236° |
| 2026-05-04 14:32 | 23.85647 | 90.39090 | 41 ft | 11 kts | 232° |
| 2026-05-04 14:33 | 23.85600 | 90.39023 | 41 ft | 12 kts | 232° |
| 2026-05-04 14:33 | 23.85550 | 90.38949 | 40 ft | 13 kts | 234° |
| 2026-05-04 14:33 | 23.85501 | 90.38890 | 40 ft | 7 kts | 209° |
| 2026-05-04 14:33 | 23.85453 | 90.38893 | 40 ft | 8 kts | 153° |
| 2026-05-04 14:34 | 23.85375 | 90.38955 | 40 ft | 38 kts | 143° |
| 2026-05-04 14:34 | 23.84923 | 90.39315 | 41 ft | 119 kts | 144° |
| 2026-05-04 14:34 | 23.84075 | 90.39992 | 104 ft | 175 kts | 143° |
| 2026-05-04 14:34 | 23.83080 | 90.40779 | 788 ft | 174 kts | 143° |
| 2026-05-04 14:35 | 23.82110 | 90.41563 | 1619 ft | 170 kts | 143° |
| 2026-05-04 14:35 | 23.81112 | 90.42353 | 2170 ft | 186 kts | 144° |
| 2026-05-04 14:35 | 23.79983 | 90.43243 | 2421 ft | 215 kts | 144° |
| 2026-05-04 14:35 | 23.78692 | 90.44259 | 2756 ft | 239 kts | 145° |
| 2026-05-04 14:36 | 23.77317 | 90.45344 | 3434 ft | 249 kts | 145° |
| 2026-05-04 14:36 | 23.75893 | 90.46473 | 4140 ft | 258 kts | 145° |
| 2026-05-04 14:36 | 23.74407 | 90.47652 | 4829 ft | 269 kts | 145° |
| 2026-05-04 14:36 | 23.72866 | 90.48871 | 5580 ft | 277 kts | 145° |
| 2026-05-04 14:37 | 23.71293 | 90.50106 | 6373 ft | 279 kts | 148° |
| 2026-05-04 14:37 | 23.69476 | 90.50859 | 6976 ft | 284 kts | 177° |
| 2026-05-04 14:37 | 23.67543 | 90.50542 | 7753 ft | 284 kts | 206° |
| 2026-05-04 14:37 | 23.65955 | 90.49295 | 8512 ft | 284 kts | 230° |
| 2026-05-04 14:38 | 23.64703 | 90.47598 | 9178 ft | 291 kts | 233° |
| 2026-05-04 14:38 | 23.63454 | 90.45841 | 9923 ft | 295 kts | 233° |
| 2026-05-04 14:38 | 23.62174 | 90.44050 | 10498 ft | 309 kts | 233° |
| 2026-05-04 14:38 | 23.60791 | 90.42124 | 10703 ft | 336 kts | 233° |
| 2026-05-04 14:39 | 23.59293 | 90.40033 | 10886 ft | 359 kts | 235° |
| 2026-05-04 14:39 | 23.58232 | 90.37530 | 11167 ft | 374 kts | 260° |
| 2026-05-04 14:39 | 23.58304 | 90.34699 | 11891 ft | 381 kts | 284° |
| 2026-05-04 14:40 | 23.60489 | 90.29398 | 13763 ft | 388 kts | 297° |
| 2026-05-04 14:40 | 23.61802 | 90.26811 | 14578 ft | 392 kts | 298° |
| 2026-05-04 14:40 | 23.63157 | 90.24206 | 15409 ft | 396 kts | 298° |
| 2026-05-04 14:40 | 23.64522 | 90.21583 | 16231 ft | 400 kts | 298° |
| 2026-05-04 14:41 | 23.65893 | 90.18928 | 17050 ft | 404 kts | 298° |
| 2026-05-04 14:41 | 23.67268 | 90.16243 | 17846 ft | 408 kts | 297° |
| 2026-05-04 14:41 | 23.70043 | 90.10767 | 19221 ft | 416 kts | 297° |
| 2026-05-04 14:42 | 23.72837 | 90.05211 | 20524 ft | 424 kts | 297° |
| 2026-05-04 14:42 | 23.74262 | 90.02372 | 21171 ft | 428 kts | 296° |